Latest Weather Observations for Mount Crawford

IDS60901

Issued at 10:41 pm CST Monday 18 June 2018 (issued every 10 minutes, with the page automatically refreshed every 10 minutes)

About weather observations | Map of Adelaide area stations | Latest observations for Adelaide area | Other Formats
Station Details ID: 023878 Name: MOUNT CRAWFORD AWS Lat: -34.73 Lon: 138.93 Height: 525.0 m
Data from the previous 72 hours. | See also: Recent months at Mount Crawford
Date/Time
CST
Temp
°C
App
Temp
°C
Dew
Point
°C
Rel
Hum
%
Delta-T
°C
Wind Press
QNH
hPa
Press
MSL
hPa
Rain since
9am
mm
Dir  Spd
km/h
Gust
km/h
Spd
kts
Gust
kts
18/10:30pm 6.0 3.0 5.9 99 0.0 E 11 17 6 9 1028.0 1028.4 0.0
18/10:00pm 6.1 3.5 6.0 99 0.0 ESE 9 13 5 7 1027.9 1028.3 0.0
18/09:30pm 6.3 3.7 6.2 99 0.0 E 9 19 5 10 1027.7 1028.1 0.0
18/09:00pm 6.3 2.2 6.2 99 0.0 E 17 28 9 15 1026.8 1027.2 0.0
18/08:30pm 6.3 1.8 6.2 99 0.0 ESE 19 28 10 15 1026.7 1027.1 0.0
18/08:00pm 6.5 3.2 6.4 99 0.0 ESE 13 20 7 11 1027.4 1027.8 0.0
18/07:30pm 6.7 4.2 6.6 99 0.0 E 9 11 5 6 1027.5 1027.9 0.0
18/07:00pm 6.7 4.6 6.6 99 0.0 SE 7 9 4 5 1027.6 1028.0 0.0
18/06:30pm 7.0 4.6 6.9 99 0.0 SSE 9 15 5 8 1027.7 1028.1 0.0
18/06:00pm 7.2 4.8 7.1 99 0.0 SE 9 11 5 6 1027.5 1027.9 0.0
18/05:30pm 7.4 6.4 7.3 99 0.0 SE 2 7 1 4 1027.7 1028.1 0.0
18/05:00pm 7.5 5.2 7.4 99 0.0 SE 9 11 5 6 1027.7 1028.1 0.0
18/04:30pm 7.9 6.1 7.8 99 0.0 ESE 7 9 4 5 1027.8 1028.2 0.0
18/04:00pm 8.0 6.2 7.9 99 0.0 SE 7 13 4 7 1027.6 1028.0 0.0
18/03:30pm 8.1 6.5 8.0 99 0.0 ESE 6 9 3 5 1027.7 1028.1 0.0
18/03:00pm 8.1 5.9 8.0 99 0.0 SE 9 15 5 8 1027.6 1028.0 0.0
18/02:30pm 8.4 6.3 8.3 99 0.0 S 9 15 5 8 1027.7 1028.1 0.0
18/02:00pm 8.5 7.0 8.4 99 0.0 SW 6 9 3 5 1027.9 1028.3 0.0
18/01:30pm 8.1 6.0 8.1 100 0.0 SSE 9 13 5 7 1028.0 1028.4 0.0
18/01:00pm 8.1 6.3 8.1 100 0.0 SSE 7 13 4 7 1028.4 1028.8 0.0
18/12:30pm 7.8 5.6 7.8 100 0.0 SE 9 15 5 8 1028.7 1029.2 0.0
18/12:00pm 7.5 4.8 7.5 100 0.0 SE 11 15 6 8 1029.3 1029.7 0.0
18/11:30am 7.6 4.6 7.6 100 0.0 SE 13 17 7 9 1029.6 1030.0 0.0
18/11:00am 6.6 4.1 6.6 100 0.0 SE 9 15 5 8 1029.9 1030.3 0.0
18/10:30am 6.2 4.0 6.2 100 0.0 SSE 7 9 4 5 1030.2 1030.7 0.0
18/10:00am 6.2 3.2 6.2 100 0.0 SE 11 15 6 8 1029.9 1030.3 0.0
18/09:30am 5.8 2.4 5.8 100 0.0 SE 13 19 7 10 1029.8 1030.2 0.0
18/09:00am 5.7 3.4 5.7 100 0.0 ESE 7 13 4 7 1029.6 1030.0 1.8
18/08:30am 5.2 4.1 5.2 100 0.0 CALM 0 6 0 3 1029.4 1029.8 1.6
18/08:00am 5.3 2.5 5.3 100 0.0 S 9 15 5 8 1028.9 1029.4 1.4
18/07:30am 5.1 2.3 5.1 100 0.0 SE 9 15 5 8 1028.4 1028.8 1.2
18/07:00am 5.0 1.4 5.0 100 0.0 SSE 13 19 7 10 1028.0 1028.4 1.2
18/06:30am 5.0 1.8 5.0 100 0.0 SE 11 17 6 9 1027.8 1028.2 1.2
18/06:00am 4.9 2.0 4.9 100 0.0 SSE 9 13 5 7 1027.8 1028.2 1.2
18/05:30am 4.8 1.9 4.8 100 0.0 SSW 9 13 5 7 1027.7 1028.1 1.0
18/05:00am 4.7 1.4 4.7 100 0.0 SW 11 15 6 8 1027.9 1028.3 1.0
18/04:30am 4.5 1.2 4.5 100 0.0 SSW 11 15 6 8 1027.7 1028.1 1.0
18/04:00am 4.8 1.2 4.8 100 0.0 SSW 13 20 7 11 1027.8 1028.2 1.0
18/03:30am 4.9 2.0 4.9 100 0.0 SW 9 17 5 9 1028.0 1028.4 1.0
18/03:00am 4.9 2.4 4.9 100 0.0 SW 7 9 4 5 1027.9 1028.3 0.8
18/02:30am 5.1 2.3 5.1 100 0.0 SSE 9 13 5 7 1027.9 1028.3 0.8
18/02:00am 5.0 2.2 5.0 100 0.0 S 9 13 5 7 1027.8 1028.2 0.8
18/01:30am 5.2 2.0 5.2 100 0.0 SSW 11 15 6 8 1027.7 1028.1 0.8
18/01:00am 5.3 2.1 5.3 100 0.0 SSW 11 15 6 8 1027.8 1028.2 0.8
18/12:30am 5.1 2.3 5.1 100 0.0 SSW 9 11 5 6 1027.8 1028.2 0.8
18/12:00am 5.5 2.4 5.5 100 0.0 SSW 11 17 6 9 1028.0 1028.4 0.8
 
Date/Time
CST
Temp
°C
App
Temp
°C
Dew
Point
°C
Rel
Hum
%
Delta-T
°C
Wind Press
QNH
hPa
Press
MSL
hPa
Rain since
9am
mm
Dir  Spd
km/h
Gust
km/h
Spd
kts
Gust
kts
17/11:30pm 5.7 2.6 5.7 100 0.0 SSW 11 15 6 8 1028.1 1028.5 0.8
17/11:00pm 5.8 2.4 5.8 100 0.0 SSW 13 19 7 10 1028.2 1028.6 0.8
17/10:30pm 5.9 3.3 5.9 100 0.0 SSW 9 15 5 8 1028.2 1028.6 0.8
17/10:00pm 5.8 3.1 5.8 100 0.0 SW 9 13 5 7 1028.0 1028.4 0.8
17/09:30pm 5.8 2.8 5.8 100 0.0 WSW 11 17 6 9 1028.0 1028.4 0.8
17/09:00pm 5.8 2.4 5.8 100 0.0 SW 13 20 7 11 1027.8 1028.2 0.8
17/08:30pm 6.1 2.3 6.0 99 0.0 SW 15 20 8 11 1027.7 1028.1 0.8
17/08:00pm 6.3 1.8 6.2 99 0.0 SSW 19 26 10 14 1027.5 1027.9 0.8
17/07:30pm 6.2 2.1 6.1 99 0.0 SSW 17 24 9 13 1027.4 1027.8 0.8
17/07:00pm 6.1 1.6 6.1 100 0.0 SW 19 26 10 14 1027.4 1027.8 0.8
17/06:30pm 6.1 1.6 6.1 100 0.0 SW 19 24 10 13 1027.0 1027.5 0.8
17/06:00pm 5.5 1.6 5.5 100 0.0 SW 15 20 8 11 1026.8 1027.2 0.8
17/05:30pm 5.9 2.1 5.9 100 0.0 SW 15 20 8 11 1026.6 1027.0 0.8
17/05:00pm 6.1 2.7 6.1 100 0.0 SW 13 20 7 11 1026.3 1026.7 0.8
17/04:30pm 6.2 2.1 6.2 100 0.0 SSW 17 24 9 13 1026.2 1026.6 0.8
17/04:00pm 6.5 2.5 6.5 100 0.0 SW 17 28 9 15 1026.0 1026.4 0.8
17/03:30pm 7.3 2.1 7.3 100 0.0 SSW 24 37 13 20 1025.8 1026.2 0.8
17/03:00pm 6.8 2.3 6.8 100 0.0 SSW 20 32 11 17 1025.5 1025.9 0.8
17/02:30pm 8.5 4.4 8.5 100 0.0 SSW 20 28 11 15 1025.3 1025.6 0.8
17/02:00pm 7.0 2.1 7.0 100 0.0 SW 22 35 12 19 1025.4 1025.8 0.8
17/01:30pm 7.5 3.7 7.5 100 0.0 SW 17 26 9 14 1025.4 1025.8 0.8
17/01:00pm 6.2 -0.8 6.2 100 0.0 SSW 32 46 17 25 1025.2 1025.5 0.6
17/12:30pm 7.9 3.8 7.9 100 0.0 SW 19 32 10 17 1025.6 1026.0 0.2
17/12:00pm 8.7 4.2 8.6 99 0.0 WSW 22 35 12 19 1025.7 1026.1 0.0
17/11:30am 8.5 4.3 8.4 99 0.0 WSW 20 35 11 19 1026.0 1026.4 0.0
17/11:00am 8.4 3.8 8.3 99 0.0 SW 22 39 12 21 1026.1 1026.5 0.0
17/10:30am 7.2 2.8 7.2 100 0.0 SW 20 39 11 21 1026.4 1026.8 0.0
17/10:00am 7.8 3.5 7.7 99 0.0 SW 20 33 11 18 1026.1 1026.5 0.0
17/09:30am 7.2 2.9 7.2 100 0.0 SW 19 37 10 20 1025.8 1026.2 0.0
17/09:00am 6.5 1.9 6.5 100 0.0 SW 20 32 11 17 1025.5 1025.9 2.2
17/08:30am 6.1 1.6 6.1 100 0.0 SW 19 33 10 18 1025.2 1025.5 2.2
17/08:00am 5.3 1.4 5.3 100 0.0 WSW 15 26 8 14 1024.8 1025.2 2.2
17/07:30am 5.1 0.8 5.1 100 0.0 WSW 17 26 9 14 1024.5 1024.9 2.2
17/07:00am 5.1 1.1 5.1 100 0.0 WSW 15 22 8 12 1024.3 1024.7 2.2
17/06:30am 5.0 0.3 5.0 100 0.0 WSW 19 32 10 17 1023.9 1024.3 2.2
17/06:00am 4.9 0.1 4.9 100 0.0 WSW 19 30 10 16 1023.5 1023.8 2.2
17/05:30am 5.2 -0.1 5.2 100 0.0 WSW 22 37 12 20 1023.3 1023.6 2.2
17/05:00am 4.8 0.4 4.8 100 0.0 WSW 17 24 9 13 1023.2 1023.5 2.2
17/04:30am 4.7 0.3 4.7 100 0.0 WSW 17 24 9 13 1023.0 1023.4 2.2
17/04:00am 4.8 0.8 4.8 100 0.0 WSW 15 24 8 13 1023.3 1023.6 2.2
17/03:30am 5.1 0.8 5.1 100 0.0 WSW 17 28 9 15 1023.2 1023.5 2.2
17/03:00am 5.3 0.4 5.3 100 0.0 WSW 20 30 11 16 1023.2 1023.5 2.2
17/02:30am 5.4 -0.2 5.4 100 0.0 WSW 24 37 13 20 1023.0 1023.4 2.2
17/02:00am 5.3 0.1 5.3 100 0.0 WSW 22 35 12 19 1022.9 1023.3 2.2
17/01:30am 5.2 -0.1 5.2 100 0.0 WSW 22 33 12 18 1022.8 1023.2 2.2
17/01:00am 4.8 0.0 4.8 100 0.0 WSW 19 30 10 16 1022.9 1023.3 2.2
17/12:30am 4.7 -0.3 4.7 100 0.0 WSW 20 35 11 19 1022.9 1023.3 2.2
17/12:00am 4.3 -0.2 4.3 100 0.0 WSW 17 26 9 14 1022.9 1023.3 2.2
 
Date/Time
CST
Temp
°C
App
Temp
°C
Dew
Point
°C
Rel
Hum
%
Delta-T
°C
Wind Press
QNH
hPa
Press
MSL
hPa
Rain since
9am
mm
Dir  Spd
km/h
Gust
km/h
Spd
kts
Gust
kts
16/11:30pm 3.9 -0.3 3.9 100 0.0 WSW 15 24 8 13 1022.9 1023.3 2.2
16/11:00pm 4.1 -0.4 4.1 100 0.0 WSW 17 26 9 14 1022.6 1023.0 2.2
16/10:30pm 4.3 -0.8 4.2 99 0.0 SW 20 32 11 17 1022.4 1022.8 2.2
16/10:00pm 4.4 -1.4 4.3 99 0.0 SW 24 39 13 21 1022.3 1022.7 2.2
16/09:30pm 4.3 -0.8 4.2 99 0.0 SW 20 32 11 17 1022.2 1022.6 2.2
16/09:00pm 4.5 -0.9 4.4 99 0.0 SW 22 39 12 21 1022.0 1022.3 2.2
16/08:30pm 4.5 -0.5 4.4 99 0.0 SW 20 32 11 17 1021.6 1021.9 2.2
16/08:00pm 4.6 -0.8 4.5 99 0.0 WSW 22 32 12 17 1021.4 1021.7 2.2
16/07:30pm 4.5 -0.9 4.5 100 0.0 WSW 22 37 12 20 1021.2 1021.5 2.2
16/07:00pm 4.5 -0.5 4.5 100 0.0 SW 20 33 11 18 1020.5 1020.9 2.2
16/06:30pm 4.6 -1.2 4.6 100 0.0 SW 24 39 13 21 1020.0 1020.3 2.2
16/06:00pm 4.3 -1.5 4.3 100 0.0 SW 24 41 13 22 1019.8 1020.1 2.2
16/05:30pm 4.5 -1.7 4.5 100 0.0 SW 26 44 14 24 1019.5 1019.8 2.0
16/05:20pm 4.6 -1.9 4.6 100 0.0 SW 28 46 15 25 1019.2 1019.5 2.0
16/05:00pm 4.8 -0.9 4.8 100 0.0 SW 24 37 13 20 1019.0 1019.4 1.4
16/04:30pm 5.4 -1.9 5.4 100 0.0 WSW 33 54 18 29 1018.7 1019.0 1.0
16/04:00pm 6.6 0.1 6.6 100 0.0 WSW 30 54 16 29 1018.4 1018.7 1.0
16/03:30pm 6.4 -1.1 6.4 100 0.0 WSW 35 56 19 30 1017.8 1018.1 1.0
16/03:03pm 6.5 -0.4 6.5 100 0.0 WSW 32 50 17 27 1018.1 1018.4 0.8
16/03:00pm 6.4 -0.7 6.4 100 0.0 WSW 33 50 18 27 1018.0 1018.3 0.8
16/02:30pm 6.7 -0.3 6.7 100 0.0 WSW 33 52 18 28 1017.6 1017.9 0.6
16/02:13pm 6.9 0.1 6.9 100 0.0 WSW 32 50 17 27 1017.9 1018.2 0.6
16/02:00pm 6.2 -0.8 6.2 100 0.0 WSW 32 48 17 26 1017.8 1018.1 0.6
16/01:31pm 7.9 1.3 7.8 99 0.0 WSW 32 56 17 30 1017.7 1018.0 0.4
16/01:30pm 8.2 1.7 8.1 99 0.0 WSW 32 46 17 25 1017.9 1018.2 0.4
16/01:05pm 7.4 1.1 7.4 100 0.0 W 30 54 16 29 1018.4 1018.7 0.4
16/01:00pm 7.6 1.7 7.6 100 0.0 W 28 44 15 24 1018.5 1018.8 0.4
16/12:30pm 6.9 0.9 6.9 100 0.0 WSW 28 50 15 27 1018.7 1019.0 0.4
16/12:00pm 7.7 1.8 7.6 99 0.0 WSW 28 48 15 26 1019.0 1019.4 0.2
16/11:30am 6.5 0.4 6.5 100 0.0 WSW 28 52 15 28 1019.3 1019.6 0.2
16/11:00am 5.8 -0.5 5.8 100 0.0 WSW 28 52 15 28 1020.0 1020.3 0.2
16/10:44am 7.7 1.8 7.7 100 0.0 WSW 28 46 15 25 1019.9 1020.2 0.0
16/10:30am 7.3 2.5 7.3 100 0.0 WSW 22 37 12 20 1020.1 1020.4 0.0
16/10:00am 6.2 2.1 6.2 100 0.0 W 17 24 9 13 1020.2 1020.5 0.0
16/09:30am 5.3 0.6 5.3 100 0.0 W 19 26 10 14 1020.0 1020.3 0.0
16/09:00am 4.7 0.3 4.7 100 0.0 W 17 30 9 16 1019.8 1020.1 15.2
16/08:30am 4.6 - - - - WSW 15 20 8 11 1019.5 1019.8 14.8
16/08:00am 4.4 - - - - WSW 17 26 9 14 1019.2 1019.5 14.8
16/07:30am 4.2 - - - - WSW 20 32 11 17 1018.7 1019.0 14.4
16/07:00am 4.8 - - - - WSW 20 32 11 17 1018.5 1018.8 14.0
16/06:30am 5.2 - - - - WSW 22 32 12 17 1018.1 1018.4 14.0
16/06:00am 5.3 - - - - W 20 30 11 16 1017.9 1018.2 14.0
16/05:30am 5.3 - - - - WSW 17 26 9 14 1017.6 1017.9 13.8
16/05:00am 5.6 - - - - W 17 30 9 16 1017.3 1017.6 13.8
16/04:30am 5.4 - - - - W 20 33 11 18 1017.3 1017.6 13.6
16/04:00am 5.3 - - - - W 20 32 11 17 1017.3 1017.6 13.6
16/03:43am 5.4 - - - - W 28 46 15 25 1017.4 1017.7 13.2
16/03:30am 5.8 - - - - W 24 41 13 22 1017.4 1017.7 12.2
16/03:02am 6.2 - - - - W 28 52 15 28 1017.3 1017.6 11.0
16/03:00am 6.3 - - - - W 26 44 14 24 1017.4 1017.7 11.0
16/02:33am 6.4 - - - - W 28 46 15 25 1017.2 1017.4 10.8
16/02:30am 6.4 - - - - W 28 43 15 23 1017.3 1017.6 10.4
16/02:01am 6.5 - - - - W 35 57 19 31 1016.9 1017.2 10.4
16/02:00am 6.6 - - - - W 33 48 18 26 1016.9 1017.2 10.4
16/01:48am 6.8 - - - - W 30 48 16 26 1016.9 1017.2 10.2
16/01:30am 7.2 - - - - W 32 44 17 24 1017.2 1017.4 10.2
16/01:28am 7.2 - - - - W 33 52 18 28 1017.2 1017.4 10.2
16/01:00am 7.4 - - - - W 33 48 18 26 1017.3 1017.6 10.2
16/12:37am 6.6 - - - - WSW 28 50 15 27 1017.1 1017.3 9.6
16/12:30am 6.8 - - - - W 30 44 16 24 1017.4 1017.7 7.8
16/12:00am 7.4 - - - - W 28 41 15 22 1017.8 1018.1 5.2
 
Date/Time
CST
Temp
°C
App
Temp
°C
Dew
Point
°C
Rel
Hum
%
Delta-T
°C
Wind Press
QNH
hPa
Press
MSL
hPa
Rain since
9am
mm
Dir  Spd
km/h
Gust
km/h
Spd
kts
Gust
kts
15/11:30pm 7.4 - - - - W 24 35 13 19 1018.0 1018.3 5.2
15/11:00pm 6.9 - - - - WSW 19 28 10 15 1018.3 1018.6 5.2

Latest Capital City Observations: Canberra | Sydney | Melbourne | Brisbane | Adelaide | Perth | Hobart | Darwin

Other Formats:

Comma delimited format used in spreadsheet applications
http://www.bom.gov.au/fwo/IDS60901/IDS60901.94678.axf

JavaScript Object Notation format (JSON) in row-major order
http://www.bom.gov.au/fwo/IDS60901/IDS60901.94678.json